Time;durP1;ratioP1;P1;durP2;ratioP2;P2;SDS_P1;SDS_P2;PMS_P1;PMS_P2;Temp;Humidity;BMP_temperature;BMP_pressure;BME280_temperature;BME280_humidity;BME280_pressure;Samples;Min_cycle;Max_cycle;Signal;HPM_P1;HPM_P2
2023/07/09 00:01:45;;;;;;;10.43;4.68;;;;;;;;;;5091589;28;20039;-74
2023/07/09 00:04:11;;;;;;;8.93;4.65;;;;;;;;;;5091149;28;20024;-74
2023/07/09 00:06:38;;;;;;;11.63;4.35;;;;;;;;;;5091485;28;20047;-74
2023/07/09 00:09:04;;;;;;;8.70;4.45;;;;;;;;;;5090415;28;20020;-74
2023/07/09 00:11:30;;;;;;;14.18;4.68;;;;;;;;;;5091591;28;20112;-74
2023/07/09 00:13:55;;;;;;;8.02;4.10;;;;;;;;;;5090723;28;20044;-74
2023/07/09 00:16:24;;;;;;;6.97;4.32;;;;;;;;;;5089457;28;20398;-74
2023/07/09 00:18:50;;;;;;;8.18;4.07;;;;;;;;;;5091046;28;20038;-74
2023/07/09 00:21:17;;;;;;;7.97;4.85;;;;;;;;;;5089375;28;20028;-74
2023/07/09 00:23:42;;;;;;;16.48;4.32;;;;;;;;;;5091170;28;20085;-74
2023/07/09 00:26:10;;;;;;;5.90;4.18;;;;;;;;;;5090071;28;20028;-74
2023/07/09 00:28:35;;;;;;;8.95;4.38;;;;;;;;;;5090721;28;20032;-73
2023/07/09 00:31:01;;;;;;;8.52;4.07;;;;;;;;;;5091002;28;20089;-74
2023/07/09 00:33:31;;;;;;;8.27;4.05;;;;;;;;;;5082207;28;20052;-74
2023/07/09 00:35:57;;;;;;;7.68;3.95;;;;;;;;;;5083630;28;20020;-74
2023/07/09 00:38:23;;;;;;;12.68;4.40;;;;;;;;;;5090288;28;20432;-76
2023/07/09 00:40:59;;;;;;;8.38;4.60;;;;;;;;;;5090482;28;20074;-74
2023/07/09 00:43:29;;;;;;;10.43;4.43;;;;;;;;;;5089300;28;20044;-74
2023/07/09 00:46:18;;;;;;;9.77;4.88;;;;;;;;;;5090642;28;20123;-74
2023/07/09 00:48:47;;;;;;;5.63;3.75;;;;;;;;;;5083725;28;20040;-74
2023/07/09 00:51:15;;;;;;;4.93;3.92;;;;;;;;;;5089921;28;20393;-74
2023/07/09 00:53:49;;;;;;;6.10;4.13;;;;;;;;;;5086319;28;20028;-74
2023/07/09 00:56:23;;;;;;;7.40;3.85;;;;;;;;;;5090881;28;20036;-74
2023/07/09 00:58:48;;;;;;;;;;;;;;;;;;5089060;28;20029;-74
2023/07/09 01:01:18;;;;;;;8.80;3.58;;;;;;;;;;5090288;28;20187;-74
2023/07/09 01:03:47;;;;;;;9.07;3.70;;;;;;;;;;5089715;28;20032;-74
2023/07/09 01:06:15;;;;;;;5.05;3.78;;;;;;;;;;5090152;28;20022;-74
2023/07/09 01:08:41;;;;;;;6.80;4.22;;;;;;;;;;5090726;28;20032;-74
2023/07/09 01:11:20;;;;;;;7.22;4.07;;;;;;;;;;5081820;28;20501;-74
2023/07/09 01:13:52;;;;;;;6.55;3.88;;;;;;;;;;5089774;28;20032;-74
2023/07/09 01:16:18;;;;;;;7.63;3.85;;;;;;;;;;5090598;28;20078;-74
2023/07/09 01:18:43;;;;;;;16.02;4.32;;;;;;;;;;5089766;28;20044;-74
2023/07/09 01:21:15;;;;;;;5.20;3.90;;;;;;;;;;5089915;28;20024;-74
2023/07/09 01:23:43;;;;;;;8.93;4.40;;;;;;;;;;5085104;28;20031;-74
2023/07/09 01:26:14;;;;;;;15.73;4.03;;;;;;;;;;5089940;28;20522;-74
2023/07/09 01:28:43;;;;;;;14.60;4.07;;;;;;;;;;5081852;28;20238;-74
2023/07/09 01:31:12;;;;;;;5.55;4.18;;;;;;;;;;5089788;28;20066;-74
2023/07/09 01:33:39;;;;;;;8.48;4.25;;;;;;;;;;5080627;28;20029;-74
2023/07/09 01:36:09;;;;;;;7.55;3.80;;;;;;;;;;5081620;28;20393;-74
2023/07/09 01:38:34;;;;;;;5.57;3.45;;;;;;;;;;5089755;28;20016;-75
2023/07/09 01:41:00;;;;;;;6.80;3.30;;;;;;;;;;5091090;28;20033;-75
2023/07/09 01:43:26;;;;;;;7.05;3.95;;;;;;;;;;5081056;28;20124;-75
2023/07/09 01:45:52;;;;;;;5.10;3.63;;;;;;;;;;5094359;28;20110;-75
2023/07/09 01:48:20;;;;;;;3.72;3.38;;;;;;;;;;5075675;28;20109;-75
2023/07/09 01:50:46;;;;;;;5.43;3.20;;;;;;;;;;5077757;28;20094;-75
2023/07/09 01:53:16;;;;;;;6.05;3.90;;;;;;;;;;5085747;28;20525;-75
2023/07/09 01:55:42;;;;;;;4.30;3.20;;;;;;;;;;5082107;28;20526;-75
2023/07/09 01:58:08;;;;;;;5.25;2.95;;;;;;;;;;5089781;28;20111;-74
2023/07/09 02:00:36;;;;;;;5.22;3.53;;;;;;;;;;5081104;28;20064;-74
2023/07/09 02:03:02;;;;;;;5.88;3.17;;;;;;;;;;5090221;28;20470;-74
2023/07/09 02:05:30;;;;;;;6.18;3.25;;;;;;;;;;5089648;28;20043;-74
2023/07/09 02:07:56;;;;;;;8.60;3.58;;;;;;;;;;5091120;28;20036;-74
2023/07/09 02:10:21;;;;;;;4.72;3.15;;;;;;;;;;5094030;28;20458;-74
2023/07/09 02:12:47;;;;;;;5.20;3.38;;;;;;;;;;5092185;28;20457;-74
2023/07/09 02:15:13;;;;;;;5.57;3.47;;;;;;;;;;5093260;28;20405;-74
2023/07/09 02:17:39;;;;;;;5.18;3.10;;;;;;;;;;5077230;28;20105;-74
2023/07/09 02:20:06;;;;;;;7.38;3.90;;;;;;;;;;5093278;28;20031;-74
2023/07/09 02:22:35;;;;;;;4.25;3.40;;;;;;;;;;5090825;28;20032;-75
2023/07/09 02:25:00;;;;;;;4.93;3.45;;;;;;;;;;5092336;28;20563;-74
2023/07/09 02:27:27;;;;;;;5.25;3.53;;;;;;;;;;5087036;28;20037;-74
2023/07/09 02:29:54;;;;;;;6.88;3.30;;;;;;;;;;5088284;28;20028;-74
2023/07/09 02:32:22;;;;;;;7.97;3.60;;;;;;;;;;5082378;28;20028;-74
2023/07/09 02:34:48;;;;;;;7.95;3.97;;;;;;;;;;5092398;28;20087;-74
2023/07/09 02:37:16;;;;;;;6.50;3.20;;;;;;;;;;5092630;28;20028;-74
2023/07/09 02:39:42;;;;;;;5.07;3.72;;;;;;;;;;5089340;28;20032;-74
2023/07/09 02:42:12;;;;;;;4.97;3.28;;;;;;;;;;5087302;28;20035;-75
2023/07/09 02:44:39;;;;;;;7.72;3.70;;;;;;;;;;5085207;28;20024;-74
2023/07/09 02:47:05;;;;;;;4.88;3.50;;;;;;;;;;5084404;28;20047;-74
2023/07/09 02:49:30;;;;;;;5.63;4.10;;;;;;;;;;5084108;28;20032;-74
2023/07/09 02:51:59;;;;;;;6.35;3.85;;;;;;;;;;5112256;22;20452;-87
2023/07/09 02:54:28;;;;;;;31.00;4.65;;;;;;;;;;5066426;28;20152;-89
2023/07/09 02:56:54;;;;;;;6.43;3.88;;;;;;;;;;5070796;28;20114;-87
2023/07/09 02:59:23;;;;;;;6.75;3.40;;;;;;;;;;5083628;28;20034;-87
2023/07/09 03:01:50;;;;;;;6.25;3.45;;;;;;;;;;5080063;28;20498;-87
2023/07/09 03:04:16;;;;;;;6.82;3.65;;;;;;;;;;5083011;28;20081;-87
2023/07/09 03:06:42;;;;;;;9.23;3.60;;;;;;;;;;5059342;28;20040;-87
2023/07/09 03:09:09;;;;;;;8.65;3.97;;;;;;;;;;5068905;28;20107;-87
2023/07/09 03:11:35;;;;;;;7.90;4.80;;;;;;;;;;5057465;28;20028;-87
2023/07/09 03:14:02;;;;;;;5.70;3.47;;;;;;;;;;5072257;28;20455;-88
2023/07/09 03:16:31;;;;;;;5.43;3.45;;;;;;;;;;5065502;28;20066;-87
2023/07/09 03:19:01;;;;;;;12.80;3.63;;;;;;;;;;5074359;28;20048;-87
2023/07/09 03:21:28;;;;;;;7.47;3.88;;;;;;;;;;5074970;28;20576;-87
2023/07/09 03:24:00;;;;;;;7.85;4.40;;;;;;;;;;5089202;28;20493;-87
2023/07/09 03:26:31;;;;;;;6.13;3.38;;;;;;;;;;5068515;28;20037;-87
2023/07/09 03:28:57;;;;;;;4.55;3.78;;;;;;;;;;5061249;28;20580;-87
2023/07/09 03:31:23;;;;;;;8.25;3.72;;;;;;;;;;5073306;28;20326;-88
2023/07/09 03:33:52;;;;;;;5.47;3.50;;;;;;;;;;5086695;28;20028;-87
2023/07/09 03:36:19;;;;;;;9.05;3.80;;;;;;;;;;5063231;28;20039;-89
2023/07/09 03:38:45;;;;;;;3.65;3.28;;;;;;;;;;5097293;28;20027;-88
2023/07/09 03:41:11;;;;;;;6.20;3.75;;;;;;;;;;5080055;28;20075;-87
2023/07/09 03:43:39;;;;;;;5.85;3.60;;;;;;;;;;5066934;28;20475;-87
2023/07/09 03:46:05;;;;;;;5.28;3.60;;;;;;;;;;5090765;28;20034;-87
2023/07/09 03:48:31;;;;;;;8.60;4.03;;;;;;;;;;5092292;28;20036;-88
2023/07/09 03:50:59;;;;;;;6.10;4.15;;;;;;;;;;5081859;28;20031;-87
2023/07/09 03:53:25;;;;;;;5.80;3.53;;;;;;;;;;5076820;28;20122;-88
2023/07/09 03:55:55;;;;;;;9.13;3.95;;;;;;;;;;5070460;28;20068;-87
2023/07/09 03:58:22;;;;;;;5.70;3.58;;;;;;;;;;5055240;28;20396;-87
2023/07/09 04:00:57;;;;;;;6.93;3.85;;;;;;;;;;5054821;28;20036;-87
2023/07/09 04:03:28;;;;;;;4.65;3.42;;;;;;;;;;5054843;28;20532;-88
2023/07/09 04:05:53;;;;;;;6.53;3.50;;;;;;;;;;5083842;28;20024;-87
2023/07/09 04:08:20;;;;;;;6.70;3.45;;;;;;;;;;5075338;28;20089;-87
2023/07/09 04:10:46;;;;;;;4.40;3.45;;;;;;;;;;5065891;28;20105;-88
2023/07/09 04:13:12;;;;;;;4.53;3.40;;;;;;;;;;5101188;28;20027;-88
2023/07/09 04:15:37;;;;;;;5.68;3.53;;;;;;;;;;5096853;28;20399;-89
2023/07/09 04:18:03;;;;;;;12.70;4.03;;;;;;;;;;5097758;28;20020;-89
2023/07/09 04:20:29;;;;;;;5.18;3.38;;;;;;;;;;5077357;28;20529;-89
2023/07/09 04:23:02;;;;;;;5.55;3.17;;;;;;;;;;5097625;28;20024;-87
2023/07/09 04:25:29;;;;;;;6.77;3.30;;;;;;;;;;5089753;28;20138;-88
2023/07/09 04:27:55;;;;;;;10.57;3.92;;;;;;;;;;5078459;28;20040;-88
2023/07/09 04:30:21;;;;;;;4.57;3.33;;;;;;;;;;5050630;28;20028;-89
2023/07/09 04:32:47;;;;;;;5.60;3.58;;;;;;;;;;5092898;28;20025;-88
2023/07/09 04:35:16;;;;;;;4.03;3.47;;;;;;;;;;5040613;28;20033;-88
2023/07/09 04:37:42;;;;;;;5.55;3.83;;;;;;;;;;5058906;28;20119;-88
2023/07/09 04:40:12;;;;;;;4.75;3.25;;;;;;;;;;5091215;28;20070;-88
2023/07/09 04:42:39;;;;;;;4.88;3.28;;;;;;;;;;5077924;28;20047;-88
2023/07/09 04:45:09;;;;;;;5.47;3.05;;;;;;;;;;5109147;28;20549;-88
2023/07/09 04:47:38;;;;;;;12.05;3.85;;;;;;;;;;5068672;28;20123;-88
2023/07/09 04:50:07;;;;;;;9.77;3.70;;;;;;;;;;5056360;28;20040;-89
2023/07/09 04:52:34;;;;;;;4.93;3.35;;;;;;;;;;5055131;28;20394;-88
2023/07/09 04:55:01;;;;;;;3.45;2.72;;;;;;;;;;5078556;28;20059;-89
2023/07/09 04:57:29;;;;;;;7.88;3.22;;;;;;;;;;5066202;28;20043;-89
2023/07/09 04:59:55;;;;;;;6.53;3.45;;;;;;;;;;5083917;28;20114;-88
2023/07/09 05:02:27;;;;;;;10.23;3.45;;;;;;;;;;5063960;28;20186;-88
2023/07/09 05:04:52;;;;;;;4.93;3.17;;;;;;;;;;5050491;28;20514;-90
2023/07/09 05:07:18;;;;;;;6.28;3.53;;;;;;;;;;5063813;28;20028;-87
2023/07/09 05:09:44;;;;;;;12.77;3.35;;;;;;;;;;5062462;28;20094;-87
2023/07/09 05:12:09;;;;;;;8.20;3.15;;;;;;;;;;5095684;28;20027;-88
2023/07/09 05:14:35;;;;;;;5.10;3.15;;;;;;;;;;5083019;28;20085;-87
2023/07/09 05:17:00;;;;;;;8.70;3.50;;;;;;;;;;5083051;28;20032;-87
2023/07/09 05:19:26;;;;;;;4.05;2.80;;;;;;;;;;5082930;28;20107;-88
2023/07/09 05:21:51;;;;;;;4.05;3.05;;;;;;;;;;5098041;28;20071;-89
2023/07/09 05:24:16;;;;;;;5.35;3.30;;;;;;;;;;5072560;28;20115;-88
2023/07/09 05:26:41;;;;;;;7.68;3.00;;;;;;;;;;5075500;28;20410;-88
2023/07/09 05:29:07;;;;;;;5.15;3.15;;;;;;;;;;5081068;28;20119;-87
2023/07/09 05:31:33;;;;;;;4.78;2.80;;;;;;;;;;5073998;28;20032;-88
2023/07/09 05:34:01;;;;;;;8.88;3.17;;;;;;;;;;5082146;28;20024;-88
2023/07/09 05:36:28;;;;;;;7.40;3.00;;;;;;;;;;5077214;28;20028;-87
2023/07/09 05:38:54;;;;;;;4.05;2.78;;;;;;;;;;5078783;28;20232;-87
2023/07/09 05:41:19;;;;;;;15.05;3.60;;;;;;;;;;5080760;28;20102;-87
2023/07/09 05:43:44;;;;;;;4.03;3.17;;;;;;;;;;5087017;28;20044;-88
2023/07/09 05:46:10;;;;;;;4.68;3.30;;;;;;;;;;5074505;28;20020;-87
2023/07/09 05:48:36;;;;;;;14.60;3.72;;;;;;;;;;5108082;28;20446;-87
2023/07/09 05:51:01;;;;;;;4.88;3.03;;;;;;;;;;5091065;28;20025;-87
2023/07/09 05:53:26;;;;;;;5.10;3.05;;;;;;;;;;5085300;28;20556;-88
2023/07/09 05:55:55;;;;;;;8.63;3.45;;;;;;;;;;5083661;28;20045;-88
2023/07/09 05:58:22;;;;;;;8.00;2.92;;;;;;;;;;5080917;28;20367;-90
2023/07/09 06:00:55;;;;;;;8.07;3.00;;;;;;;;;;5071134;28;20056;-89
2023/07/09 06:03:22;;;;;;;10.05;3.20;;;;;;;;;;5076695;28;20019;-88
2023/07/09 06:05:51;;;;;;;5.88;3.03;;;;;;;;;;5080493;28;20076;-88
2023/07/09 06:08:18;;;;;;;4.22;2.95;;;;;;;;;;5088232;28;20024;-87
2023/07/09 06:10:54;;;;;;;5.20;3.08;;;;;;;;;;5082702;28;20042;-88
2023/07/09 06:13:20;;;;;;;6.05;3.22;;;;;;;;;;5092659;28;20062;-88
2023/07/09 06:15:47;;;;;;;5.32;3.08;;;;;;;;;;5088455;28;20056;-89
2023/07/09 06:18:12;;;;;;;5.63;3.00;;;;;;;;;;5073734;28;20024;-88
2023/07/09 06:20:38;;;;;;;5.88;3.10;;;;;;;;;;5079850;28;20020;-88
2023/07/09 06:23:03;;;;;;;3.17;2.88;;;;;;;;;;5100782;28;20505;-89
2023/07/09 06:25:28;;;;;;;6.88;3.10;;;;;;;;;;5083585;28;20039;-89
2023/07/09 06:27:54;;;;;;;7.32;3.55;;;;;;;;;;5081849;28;20036;-89
2023/07/09 06:30:19;;;;;;;6.55;3.28;;;;;;;;;;5080203;28;20016;-89
2023/07/09 06:32:45;;;;;;;3.22;2.63;;;;;;;;;;5080753;28;20016;-91
2023/07/09 06:35:10;;;;;;;8.57;3.22;;;;;;;;;;5073978;28;20025;-89
2023/07/09 06:37:36;;;;;;;5.53;3.17;;;;;;;;;;5075943;28;20089;-89
2023/07/09 06:40:02;;;;;;;7.80;3.30;;;;;;;;;;5076713;28;20032;-90
2023/07/09 06:42:28;;;;;;;5.43;3.05;;;;;;;;;;5067459;28;20028;-89
2023/07/09 06:44:53;;;;;;;6.90;3.40;;;;;;;;;;5085553;28;20023;-90
2023/07/09 06:47:18;;;;;;;6.45;3.20;;;;;;;;;;5072246;28;20379;-89
2023/07/09 06:49:44;;;;;;;3.97;3.03;;;;;;;;;;5087527;28;20089;-90
2023/07/09 06:52:09;;;;;;;4.30;3.10;;;;;;;;;;5077609;28;20032;-89
2023/07/09 06:54:34;;;;;;;6.35;3.28;;;;;;;;;;5103476;28;20378;-90
2023/07/09 06:57:00;;;;;;;6.85;3.33;;;;;;;;;;5101842;28;20501;-89
2023/07/09 06:59:25;;;;;;;8.18;2.92;;;;;;;;;;5067618;28;20545;-89
2023/07/09 07:01:50;;;;;;;4.53;3.22;;;;;;;;;;5073514;28;20566;-89
2023/07/09 07:04:16;;;;;;;4.13;3.10;;;;;;;;;;5080408;28;20035;-89
2023/07/09 07:06:41;;;;;;;5.25;3.45;;;;;;;;;;5082667;28;20043;-89
2023/07/09 07:09:07;;;;;;;5.60;3.22;;;;;;;;;;5067214;28;20049;-89
2023/07/09 07:11:32;;;;;;;8.38;3.40;;;;;;;;;;5078754;28;20040;-90
2023/07/09 07:13:58;;;;;;;3.90;3.28;;;;;;;;;;5064480;28;20103;-91
2023/07/09 07:16:23;;;;;;;4.90;3.45;;;;;;;;;;5062562;28;20036;-90
2023/07/09 07:18:50;;;;;;;5.90;3.13;;;;;;;;;;5077674;28;20033;-91
2023/07/09 07:21:20;;;;;;;6.13;3.17;;;;;;;;;;5082704;28;20021;-91
2023/07/09 07:23:48;;;;;;;7.25;3.05;;;;;;;;;;5075591;28;20083;-91
2023/07/09 07:26:16;;;;;;;5.55;3.10;;;;;;;;;;5122325;28;20047;-91
2023/07/09 07:28:43;;;;;;;3.38;2.88;;;;;;;;;;5084378;28;20032;-91
2023/07/09 07:31:09;;;;;;;4.65;3.28;;;;;;;;;;5117404;28;20047;-92
2023/07/09 07:33:38;;;;;;;4.72;2.80;;;;;;;;;;5093721;28;20035;-91
2023/07/09 07:36:07;;;;;;;4.30;2.80;;;;;;;;;;5105063;28;20028;-90
2023/07/09 07:38:33;;;;;;;7.25;3.10;;;;;;;;;;5080524;28;20021;-90
2023/07/09 07:41:01;;;;;;;10.10;3.33;;;;;;;;;;5105446;28;20032;-90
2023/07/09 07:43:26;;;;;;;11.80;3.08;;;;;;;;;;5079602;28;20036;-89
2023/07/09 07:45:51;;;;;;;3.35;2.95;;;;;;;;;;5082882;28;20044;-90
2023/07/09 07:48:19;;;;;;;4.43;2.88;;;;;;;;;;5081433;28;20110;-90
2023/07/09 07:50:47;;;;;;;6.63;3.05;;;;;;;;;;5095567;28;20032;-89
2023/07/09 07:53:14;;;;;;;5.38;2.83;;;;;;;;;;5084867;28;20039;-90
2023/07/09 07:55:40;;;;;;;12.23;3.00;;;;;;;;;;5078343;28;20028;-89
2023/07/09 07:58:05;;;;;;;4.68;2.63;;;;;;;;;;5069003;28;20028;-89
2023/07/09 08:00:31;;;;;;;3.42;3.05;;;;;;;;;;5082428;28;20054;-89
2023/07/09 08:02:56;;;;;;;4.50;2.95;;;;;;;;;;5090858;28;20628;-89
2023/07/09 08:05:23;;;;;;;8.63;2.92;;;;;;;;;;5073306;28;20561;-89
2023/07/09 08:07:48;;;;;;;4.22;2.88;;;;;;;;;;5070534;28;20039;-89
2023/07/09 08:10:15;;;;;;;5.60;2.53;;;;;;;;;;5075405;28;20036;-91
2023/07/09 08:12:40;;;;;;;5.95;2.83;;;;;;;;;;5067203;28;20049;-89
2023/07/09 08:15:06;;;;;;;4.03;3.15;;;;;;;;;;5092495;28;20024;-89
2023/07/09 08:17:32;;;;;;;3.70;2.80;;;;;;;;;;5092293;28;20032;-89
2023/07/09 08:19:57;;;;;;;4.97;2.80;;;;;;;;;;5078105;28;20366;-89
2023/07/09 08:22:25;;;;;;;4.25;2.78;;;;;;;;;;5085751;28;20133;-90
2023/07/09 08:24:51;;;;;;;8.27;3.22;;;;;;;;;;5087571;28;20047;-90
2023/07/09 08:27:17;;;;;;;6.05;2.72;;;;;;;;;;5087662;28;20028;-89
2023/07/09 08:29:43;;;;;;;6.28;3.20;;;;;;;;;;5083202;28;20036;-90
2023/07/09 08:32:10;;;;;;;5.32;2.42;;;;;;;;;;5070356;28;20031;-89
2023/07/09 08:34:37;;;;;;;6.30;2.80;;;;;;;;;;5074580;28;20058;-89
2023/07/09 08:37:03;;;;;;;2.90;2.53;;;;;;;;;;5078005;28;20046;-89
2023/07/09 08:39:29;;;;;;;5.70;2.80;;;;;;;;;;5074988;28;20028;-88
2023/07/09 08:41:59;;;;;;;5.07;2.80;;;;;;;;;;5076356;28;20427;-89
2023/07/09 08:44:44;;;;;;;5.10;2.47;;;;;;;;;;5090573;28;20040;-89
2023/07/09 08:47:26;;;;;;;4.90;2.88;;;;;;;;;;5082645;28;20105;-88
2023/07/09 08:50:01;;;;;;;5.90;3.08;;;;;;;;;;5075658;28;20036;-89
2023/07/09 08:52:36;;;;;;;6.18;2.70;;;;;;;;;;5077760;28;20044;-89
2023/07/09 08:55:08;;;;;;;5.05;2.70;;;;;;;;;;5091959;28;20085;-88
2023/07/09 08:57:40;;;;;;;4.00;2.50;;;;;;;;;;5093670;28;20028;-89
2023/07/09 09:00:31;;;;;;;6.75;2.63;;;;;;;;;;5080342;28;20016;-89
2023/07/09 09:03:01;;;;;;;6.22;2.90;;;;;;;;;;5060031;28;20246;-90
2023/07/09 09:05:27;;;;;;;3.13;2.55;;;;;;;;;;5107729;28;20028;-90
2023/07/09 09:08:03;;;;;;;8.07;2.83;;;;;;;;;;5110221;28;20043;-89
2023/07/09 09:10:48;;;;;;;5.03;2.80;;;;;;;;;;5102820;28;20036;-88
2023/07/09 09:13:16;;;;;;;4.95;2.80;;;;;;;;;;5078011;28;20046;-88
2023/07/09 09:15:45;;;;;;;6.20;2.65;;;;;;;;;;5086807;28;20165;-89
2023/07/09 09:18:27;;;;;;;3.00;2.70;;;;;;;;;;5086777;28;20394;-89
2023/07/09 09:21:19;;;;;;;4.88;2.78;;;;;;;;;;5080515;28;20096;-88
2023/07/09 09:23:54;;;;;;;8.00;3.10;;;;;;;;;;5058549;28;20044;-88
2023/07/09 09:26:28;;;;;;;5.82;2.75;;;;;;;;;;5101284;28;20024;-89
2023/07/09 09:28:53;;;;;;;5.90;2.72;;;;;;;;;;5083476;28;20070;-89
2023/07/09 09:31:19;;;;;;;3.85;2.70;;;;;;;;;;5080741;28;20024;-89
2023/07/09 09:33:47;;;;;;;4.85;2.80;;;;;;;;;;5092741;28;20024;-89
2023/07/09 09:36:22;;;;;;;2.75;2.30;;;;;;;;;;5072364;28;20051;-90
2023/07/09 09:38:50;;;;;;;8.80;3.38;;;;;;;;;;5081449;28;20521;-89
2023/07/09 09:41:18;;;;;;;5.95;3.10;;;;;;;;;;5096731;28;20036;-89
2023/07/09 09:43:45;;;;;;;7.32;2.70;;;;;;;;;;5074119;28;20123;-89
2023/07/09 09:46:21;;;;;;;6.15;2.47;;;;;;;;;;5073801;28;20024;-89
2023/07/09 09:48:50;;;;;;;8.30;3.47;;;;;;;;;;5102296;28;20036;-91
2023/07/09 09:51:18;;;;;;;4.53;2.95;;;;;;;;;;5074183;28;20082;-91
2023/07/09 09:53:49;;;;;;;3.42;2.55;;;;;;;;;;5056187;28;20036;-91
2023/07/09 09:56:28;;;;;;;4.60;2.55;;;;;;;;;;5089736;28;20032;-91
2023/07/09 09:58:54;;;;;;;8.05;3.03;;;;;;;;;;5079091;28;20516;-90
2023/07/09 10:01:22;;;;;;;8.43;2.78;;;;;;;;;;5071502;28;20119;-91
2023/07/09 10:03:52;;;;;;;2.63;2.38;;;;;;;;;;5077734;28;20029;-90
2023/07/09 10:06:25;;;;;;;3.53;2.50;;;;;;;;;;5090051;28;20095;-89
2023/07/09 10:08:56;;;;;;;7.60;2.70;;;;;;;;;;5093578;28;20032;-90
2023/07/09 10:11:47;;;;;;;6.78;2.58;;;;;;;;;;5072785;28;20043;-90
2023/07/09 10:14:38;;;;;;;5.18;2.72;;;;;;;;;;5087486;28;20119;-89
2023/07/09 10:17:50;;;;;;;8.23;3.10;;;;;;;;;;5084489;28;20040;-91
2023/07/09 10:20:37;;;;;;;4.50;3.17;;;;;;;;;;5073398;28;20079;-90
2023/07/09 10:23:25;;;;;;;3.55;2.58;;;;;;;;;;5067718;28;20048;-91
2023/07/09 10:26:15;;;;;;;5.53;2.78;;;;;;;;;;5090852;28;20040;-91
2023/07/09 10:28:58;;;;;;;3.72;2.78;;;;;;;;;;5069959;28;20040;-90
2023/07/09 10:31:39;;;;;;;3.08;2.58;;;;;;;;;;5062662;28;20024;-91
2023/07/09 10:34:21;;;;;;;3.13;2.35;;;;;;;;;;5064284;28;20040;-91
2023/07/09 10:37:05;;;;;;;4.53;3.22;;;;;;;;;;5065173;28;20040;-91
2023/07/09 10:44:04;;;;;;;;;;;;;;;;;;;;;
2023/07/09 10:46:50;;;;;;;4.85;3.00;;;;;;;;;;4929502;28;20127;-90
2023/07/09 10:49:44;;;;;;;3.15;2.20;;;;;;;;;;4984013;28;20034;-91
2023/07/09 10:52:51;;;;;;;2.80;2.50;;;;;;;;;;4946191;28;20097;-91
2023/07/09 10:56:14;;;;;;;3.38;2.28;;;;;;;;;;4959093;28;20041;-90
2023/07/09 10:59:20;;;;;;;5.50;2.85;;;;;;;;;;4890148;29;20037;-90
2023/07/09 11:02:55;;;;;;;;;;;;;;;;;;;;;
2023/07/09 11:05:35;;;;;;;2.80;2.22;;;;;;;;;;4988601;28;20036;-90
2023/07/09 11:08:16;;;;;;;7.72;2.28;;;;;;;;;;5080320;28;20650;-90
2023/07/09 11:11:04;;;;;;;2.95;2.30;;;;;;;;;;5083237;28;20490;-90
2023/07/09 11:13:41;;;;;;;4.65;2.90;;;;;;;;;;5071070;28;20040;-90
2023/07/09 11:16:16;;;;;;;5.20;2.35;;;;;;;;;;5077314;28;20074;-90
2023/07/09 11:19:00;;;;;;;4.10;2.67;;;;;;;;;;5076574;28;20035;-90
2023/07/09 11:21:34;;;;;;;;;;;;;;;;;;5060372;28;20107;-90
2023/07/09 11:24:06;;;;;;;4.85;2.40;;;;;;;;;;5077225;28;19917;-90
2023/07/09 11:26:38;;;;;;;6.80;2.47;;;;;;;;;;5090999;28;20125;-90
2023/07/09 11:29:26;;;;;;;2.63;2.40;;;;;;;;;;5078598;28;20094;-88
2023/07/09 11:32:07;;;;;;;3.40;2.50;;;;;;;;;;5083734;28;20036;-88
2023/07/09 11:34:50;;;;;;;6.32;2.72;;;;;;;;;;5065663;28;20123;-90
2023/07/09 11:37:31;;;;;;;5.23;2.70;;;;;;;;;;5027693;28;20041;-89
2023/07/09 11:40:24;;;;;;;;;;;;;;;;;;;;;
2023/07/09 11:43:31;;;;;;;3.40;2.80;;;;;;;;;;5086037;28;20502;-89
2023/07/09 11:46:23;;;;;;;3.40;2.65;;;;;;;;;;5079367;28;20172;-89
2023/07/09 11:49:00;;;;;;;5.85;3.17;;;;;;;;;;5084487;28;20088;-88
2023/07/09 11:52:00;;;;;;;4.35;3.05;;;;;;;;;;5083856;28;20051;-89
2023/07/09 11:54:26;;;;;;;6.07;3.00;;;;;;;;;;5071448;28;20051;-88
2023/07/09 11:57:11;;;;;;;4.35;2.63;;;;;;;;;;5069677;28;20031;-89
2023/07/09 11:59:44;;;;;;;2.90;2.40;;;;;;;;;;5079389;28;20032;-89
2023/07/09 12:02:22;;;;;;;4.97;2.73;;;;;;;;;;5098748;28;20062;-89
2023/07/09 12:05:10;;;;;;;4.07;2.60;;;;;;;;;;5080814;28;20024;-92
2023/07/09 12:07:39;;;;;;;2.97;2.67;;;;;;;;;;5106206;28;20099;-91
2023/07/09 12:13:28;;;;;;;4.10;2.65;;;;;;;;;;5091855;22;20098;-79
2023/07/09 12:15:53;;;;;;;4.65;2.90;;;;;;;;;;5068815;28;20025;-80
2023/07/09 12:18:18;;;;;;;3.45;2.78;;;;;;;;;;5050929;28;20016;-80
2023/07/09 12:20:49;;;;;;;5.03;2.90;;;;;;;;;;5051087;28;20039;-80
2023/07/09 12:23:32;;;;;;;3.35;2.83;;;;;;;;;;5039416;28;20028;-80
2023/07/09 12:26:03;;;;;;;4.90;2.72;;;;;;;;;;5041687;28;20151;-79
2023/07/09 12:28:29;;;;;;;3.78;2.47;;;;;;;;;;5046100;28;20033;-79
2023/07/09 12:30:54;;;;;;;3.05;2.75;;;;;;;;;;5057193;28;20078;-80
2023/07/09 12:33:25;;;;;;;6.40;3.42;;;;;;;;;;5051277;28;20020;-78
2023/07/09 12:35:58;;;;;;;3.20;2.90;;;;;;;;;;5061983;28;20510;-79
2023/07/09 12:38:27;;;;;;;3.38;2.67;;;;;;;;;;5055674;28;20130;-79
2023/07/09 12:40:55;;;;;;;5.20;2.75;;;;;;;;;;5058297;28;20499;-78
2023/07/09 12:43:26;;;;;;;4.90;2.70;;;;;;;;;;5043917;28;20146;-79
2023/07/09 12:45:53;;;;;;;4.07;3.08;;;;;;;;;;5058828;28;20028;-79
2023/07/09 12:48:23;;;;;;;5.05;3.03;;;;;;;;;;5051420;28;20021;-79
2023/07/09 12:50:50;;;;;;;9.55;3.03;;;;;;;;;;5042952;28;20510;-79
2023/07/09 12:53:18;;;;;;;6.95;2.97;;;;;;;;;;5037772;28;20037;-78
2023/07/09 12:55:50;;;;;;;4.10;3.08;;;;;;;;;;5046852;28;20037;-79
2023/07/09 12:58:20;;;;;;;6.55;2.92;;;;;;;;;;5066274;28;20112;-78
2023/07/09 13:00:53;;;;;;;4.45;3.00;;;;;;;;;;5065504;28;20043;-79
2023/07/09 13:03:21;;;;;;;;;;;;;;;;;;5039511;28;20044;-79
2023/07/09 13:06:05;;;;;;;5.60;2.90;;;;;;;;;;5065116;28;19977;-78
2023/07/09 13:08:43;;;;;;;2.80;2.28;;;;;;;;;;5051420;28;20051;-79
2023/07/09 13:11:20;;;;;;;3.13;2.40;;;;;;;;;;5037674;28;20062;-77
2023/07/09 13:13:57;;;;;;;4.28;2.20;;;;;;;;;;5072957;28;20040;-77
2023/07/09 13:16:22;;;;;;;6.28;3.10;;;;;;;;;;5031538;28;20569;-79
2023/07/09 13:18:48;;;;;;;3.38;2.60;;;;;;;;;;5062871;28;20029;-79
2023/07/09 13:21:16;;;;;;;3.83;2.83;;;;;;;;;;5044588;28;20057;-79
2023/07/09 13:23:42;;;;;;;6.45;2.40;;;;;;;;;;5057455;28;20024;-79
2023/07/09 13:26:08;;;;;;;3.35;2.53;;;;;;;;;;5039683;28;20030;-79
2023/07/09 13:28:33;;;;;;;7.25;2.90;;;;;;;;;;5045062;28;20447;-78
2023/07/09 13:31:12;;;;;;;5.50;2.75;;;;;;;;;;5046111;28;20033;-78
2023/07/09 13:33:38;;;;;;;6.85;2.78;;;;;;;;;;5044993;28;20032;-78
2023/07/09 13:36:04;;;;;;;2.80;2.30;;;;;;;;;;5071787;28;20078;-77
2023/07/09 13:38:29;;;;;;;4.55;3.13;;;;;;;;;;5050872;28;20020;-77
2023/07/09 13:40:57;;;;;;;5.35;2.65;;;;;;;;;;5047891;28;20051;-77
2023/07/09 13:43:29;;;;;;;4.18;2.80;;;;;;;;;;5045849;28;20036;-77
2023/07/09 13:45:56;;;;;;;4.80;2.67;;;;;;;;;;5056599;28;20040;-76
2023/07/09 13:48:23;;;;;;;5.30;2.85;;;;;;;;;;5057228;28;20021;-76
2023/07/09 13:50:51;;;;;;;4.28;2.75;;;;;;;;;;5038552;28;20037;-76
2023/07/09 13:53:19;;;;;;;4.78;2.60;;;;;;;;;;5071039;28;20107;-77
2023/07/09 13:55:45;;;;;;;6.43;3.00;;;;;;;;;;5043137;28;20033;-76
2023/07/09 13:58:13;;;;;;;4.20;2.67;;;;;;;;;;5043978;28;20039;-77
2023/07/09 14:00:40;;;;;;;8.95;2.50;;;;;;;;;;5072149;28;20048;-77
2023/07/09 14:03:15;;;;;;;3.83;2.60;;;;;;;;;;5049736;28;20036;-77
2023/07/09 14:05:41;;;;;;;4.32;2.72;;;;;;;;;;5053344;28;20020;-77
2023/07/09 14:08:08;;;;;;;5.40;2.80;;;;;;;;;;5074191;28;20037;-77
2023/07/09 14:10:33;;;;;;;2.58;2.38;;;;;;;;;;5056915;28;20048;-77
2023/07/09 14:12:58;;;;;;;4.85;2.90;;;;;;;;;;5039429;28;20033;-77
2023/07/09 14:15:24;;;;;;;5.28;3.10;;;;;;;;;;5058040;28;20029;-78
2023/07/09 14:17:50;;;;;;;4.05;2.90;;;;;;;;;;5042404;28;20120;-78
2023/07/09 14:20:17;;;;;;;5.95;2.83;;;;;;;;;;5065662;28;20021;-78
2023/07/09 14:22:43;;;;;;;5.35;2.63;;;;;;;;;;5057931;28;20033;-78
2023/07/09 14:25:15;;;;;;;4.28;2.92;;;;;;;;;;5057712;28;20033;-78
2023/07/09 14:27:40;;;;;;;4.05;2.58;;;;;;;;;;5064377;28;20052;-78
2023/07/09 14:30:06;;;;;;;3.28;2.70;;;;;;;;;;5066517;28;20024;-78
2023/07/09 14:32:41;;;;;;;5.50;2.80;;;;;;;;;;5066230;28;20117;-78
2023/07/09 14:35:32;;;;;;;4.18;2.60;;;;;;;;;;5054253;28;20064;-78
2023/07/09 14:38:00;;;;;;;4.00;2.78;;;;;;;;;;5043665;28;20033;-77
2023/07/09 14:40:25;;;;;;;5.07;2.70;;;;;;;;;;5039724;28;20025;-78
2023/07/09 14:42:50;;;;;;;6.78;2.97;;;;;;;;;;5057341;28;20040;-78
2023/07/09 14:45:24;;;;;;;5.13;3.22;;;;;;;;;;5046908;28;20025;-78
2023/07/09 14:47:51;;;;;;;5.15;3.05;;;;;;;;;;5077809;28;20492;-78
2023/07/09 14:50:18;;;;;;;7.65;2.78;;;;;;;;;;5060386;28;20041;-77
2023/07/09 14:52:47;;;;;;;3.50;2.78;;;;;;;;;;5044796;28;20063;-78
2023/07/09 14:55:18;;;;;;;4.57;2.88;;;;;;;;;;5056840;28;20503;-77
2023/07/09 14:57:44;;;;;;;3.97;2.90;;;;;;;;;;5051083;28;20041;-78
2023/07/09 15:00:18;;;;;;;6.57;2.92;;;;;;;;;;5039238;28;20029;-78
2023/07/09 15:02:45;;;;;;;5.95;2.67;;;;;;;;;;5050902;28;20111;-78
2023/07/09 15:05:19;;;;;;;3.40;2.67;;;;;;;;;;5064452;28;20056;-78
2023/07/09 15:07:45;;;;;;;6.03;2.80;;;;;;;;;;5058166;28;20140;-79
2023/07/09 15:10:37;;;;;;;7.13;2.75;;;;;;;;;;5040590;28;20071;-79
2023/07/09 15:13:03;;;;;;;4.65;2.88;;;;;;;;;;5056738;28;20033;-77